• Join FlightAware (Why Join?)
  • Login
  • US Flag 
11:16PM EDT


 

Airport Tracker/Info


-or-


 

Live Flight TrackerFlight Track Log ✈ ASQ185B ✈ 29-May-2012 ✈ KIAH - KBRO

Flight Track Log - Related Links

Times and Time Zones

All times are in EDT time to prevent confusion due to time zone crossing. See the ASQ185B flight status page for this flight to view local times or setup timezone preferences in your user account.

Time Position Orientation Groundspeed Altitude Reporting Facility
EDT Latitude Longitude Course Direction KTS MPH feet Rate Location/Type
04:34PM 29.9622 -95.3458 130° Southeast 166 191 600  Level Houston Center
04:35PM 29.9322 -95.3039 123° Southeast 221 254 2,000 1,620 Climbing Houston Center
04:36PM 29.9003 -95.2478 127° Southeast 260 299 3,500 1,500 Climbing Houston Center
04:37PM 29.8500 -95.1717 126° Southeast 262 302 5,000 1,380 Climbing Houston Center
04:38PM 29.8058 -95.1008 158° South 267 307 6,500 1,860 Climbing Houston Center
04:39PM 29.7336 -95.0675 205° Southwest 284 327 9,000 2,040 Climbing Houston Center
04:40PM 29.6744 -95.0989 205° Southwest 291 335 10,500 1,440 Climbing Houston Center
04:41PM 29.5961 -95.1417 205° Southwest 324 373 11,700 960 Climbing Houston Center
04:42PM 29.4797 -95.2047 205° Southwest 366 421 12,900 1,080 Climbing Houston Center
04:43PM 29.3886 -95.2539 209° Southwest 366 421 14,400 1,260 Climbing Houston Center
04:44PM 29.2994 -95.3106 209° Southwest 366 421 15,500 960 Climbing Houston Center
04:45PM 29.2081 -95.3692 209° Southwest 379 436 16,400 900 Climbing Houston Center
04:46PM 29.1125 -95.4300 208° Southwest 385 443 17,400 900 Climbing Houston Center
04:47PM 29.0125 -95.4906 210° Southwest 396 456 18,300 960 Climbing Houston Center
04:48PM 28.9147 -95.5558 208° Southwest 402 463 19,400 1,140 Climbing Houston Center
04:49PM 28.8150 -95.6161 209° Southwest 408 470 20,600 1,080 Climbing Houston Center
04:50PM 28.7150 -95.6786 210° Southwest 408 470 21,600 900 Climbing Houston Center
04:51PM 28.6147 -95.7436 207° Southwest 413 475 22,500 900 Climbing Houston Center
04:52PM 28.5128 -95.8033 209° Southwest 413 475 23,400 720 Climbing Houston Center
04:53PM 28.4106 -95.8681 208° Southwest 418 481 24,000 300 Climbing Houston Center
04:54PM 28.3022 -95.9322 212° Southwest 424 488 24,000  Level Houston Center
04:55PM 28.1933 -96.0081 208° Southwest 445 512 24,000  Level Houston Center
04:56PM 28.0825 -96.0742 208° Southwest 458 527 24,000  Level Houston Center
04:57PM 27.9656 -96.1444 209° Southwest 465 535 24,000  Level Houston Center
04:58PM 27.8503 -96.2172 211° Southwest 471 542 24,000  Level Houston Center
04:59PM 27.7372 -96.2947 228° Southwest 471 542 24,000  Level Houston Center
05:00PM 27.6478 -96.4058 227° Southwest 471 542 24,000  Level Houston Center
05:01PM 27.5628 -96.5075 228° Southwest 466 536 24,000  Level Houston Center
05:02PM 27.4775 -96.6136 228° Southwest 461 531 24,000  Level Houston Center
05:03PM 27.3878 -96.7267 224° Southwest 474 545 24,000  Level Houston Center
05:04PM 27.2856 -96.8389 229° Southwest 480 552 24,000  Level Houston Center
05:05PM 27.2022 -96.9469 226° Southwest 474 545 24,000  Level Houston Center
05:06PM 27.1125 -97.0522 228° Southwest 474 545 24,000  Level Houston Center
05:07PM 27.0247 -97.1600 228° Southwest 474 545 24,000 -660 Level Houston Center
05:08PM 26.9414 -97.2628 212° Southwest 474 545 22,700 -1,680 Descending Houston Center
05:09PM 26.8575 -97.3214 186° South 451 519 21,100 -2,400 Descending Houston Center
05:10PM 26.7128 -97.3397 191° South 433 498 18,000 -2,580 Descending Houston Center
05:11PM 26.6031 -97.3644 192° South 424 488 15,700 -2,580 Descending Houston Center
05:12PM 26.4936 -97.3911 191° South 415 478 13,100 -2,400 Descending Houston Center
05:13PM 26.3819 -97.4158 194° South 374 430 10,900 -1,680 Descending Houston Center
05:14PM 26.2911 -97.4411 191° South 327 376 9,800 -1,620 Descending Houston Center
05:15PM 26.2111 -97.4578 191° South 296 341 7,700 -2,160 Descending Houston Center
05:16PM 26.1331 -97.4747 193° South 287 330 5,400 -2,040 Descending Houston Center
05:17PM 26.0719 -97.4900 191° South 267 307 3,600 -1,740 Descending Houston Center
05:18PM 26.0025 -97.5050 156° South 245 282 2,000 -960 Descending Houston Center
05:19PM 25.9617 -97.4844 139° Southeast 191 220 1,700 -780 Descending Houston Center
05:20PM 25.9314 -97.4553 142° Southeast 146 168 500 -720 Descending Houston Center
05:21PM 25.9033 -97.4306 144° Southeast 136 157 300 11,700 Descending Houston Center
05:22PM 25.8731 -97.4061 341° North 136 157 24,000 23,700 Climbing Houston Center
05:30PM 25.9000 -97.4167 310° West  Level FlightAware Approximate
05:31PM 25.9755 -97.5181 310° West  Level Estimated